createdAt,value
2018-09-22T00:00:29.948Z,1.80
2018-09-22T00:02:57.548Z,2.10
2018-09-22T00:05:25.138Z,2.03
2018-09-22T00:07:52.796Z,1.70
2018-09-22T00:10:20.387Z,2.10
2018-09-22T00:12:47.977Z,1.67
2018-09-22T00:15:15.582Z,2.13
2018-09-22T00:17:43.200Z,1.80
2018-09-22T00:20:10.761Z,1.43
2018-09-22T00:22:38.349Z,2.17
2018-09-22T00:25:06.071Z,1.97
2018-09-22T00:27:33.649Z,2.10
2018-09-22T00:30:01.255Z,2.03
2018-09-22T00:32:28.835Z,2.00
2018-09-22T00:34:56.444Z,1.67
2018-09-22T00:37:24.044Z,1.87
2018-09-22T00:39:51.720Z,1.87
2018-09-22T00:42:19.321Z,1.63
2018-09-22T00:44:46.913Z,2.00
2018-09-22T00:47:14.513Z,2.27
2018-09-22T00:49:42.164Z,2.00
2018-09-22T00:52:09.805Z,2.10
2018-09-22T00:54:37.412Z,1.73
2018-09-22T00:57:05.056Z,1.90
2018-09-22T00:59:32.673Z,2.10
2018-09-22T01:02:00.277Z,2.20
2018-09-22T01:04:27.937Z,2.30
2018-09-22T01:06:55.520Z,2.10
2018-09-22T01:09:23.146Z,2.17
2018-09-22T01:11:50.769Z,2.47
2018-09-22T01:14:18.376Z,2.53
2018-09-22T01:16:45.981Z,1.90
2018-09-22T01:19:13.613Z,2.10
2018-09-22T01:21:41.193Z,1.67
2018-09-22T01:24:08.813Z,1.30
2018-09-22T01:26:36.393Z,1.60
2018-09-22T01:29:04.027Z,1.70
2018-09-22T01:31:31.625Z,2.27
2018-09-22T01:33:59.264Z,1.90
2018-09-22T01:36:26.935Z,2.10
2018-09-22T01:38:54.584Z,1.97
2018-09-22T01:41:22.320Z,2.03
2018-09-22T01:43:49.982Z,1.60
2018-09-22T01:46:17.569Z,1.70
2018-09-22T01:48:45.149Z,1.97
2018-09-22T01:51:12.837Z,2.90
2018-09-22T01:53:40.413Z,2.07
2018-09-22T01:56:08.036Z,2.00
2018-09-22T01:58:35.693Z,1.97
2018-09-22T02:01:03.558Z,1.87
2018-09-22T02:03:31.277Z,1.87
2018-09-22T02:05:59.002Z,1.60
2018-09-22T02:08:26.872Z,2.20
2018-09-22T02:10:54.628Z,1.80
2018-09-22T02:13:22.357Z,1.60
2018-09-22T02:15:50.069Z,1.80
2018-09-22T02:18:17.736Z,2.00
2018-09-22T02:20:45.561Z,2.17
2018-09-22T02:23:13.268Z,2.03
2018-09-22T02:25:40.954Z,1.67
2018-09-22T02:28:08.742Z,2.43
2018-09-22T02:30:36.994Z,2.07
2018-09-22T02:33:04.993Z,1.90
2018-09-22T02:35:32.932Z,1.80
2018-09-22T02:38:01.064Z,2.10
2018-09-22T02:40:28.974Z,2.47
2018-09-22T02:42:56.786Z,1.67
2018-09-22T02:45:24.818Z,1.43
2018-09-22T02:47:52.518Z,2.40
2018-09-22T02:50:20.319Z,2.13
2018-09-22T02:52:48.450Z,8.40
2018-09-22T02:55:16.497Z,2.23
2018-09-22T02:57:44.421Z,1.93
2018-09-22T03:00:12.178Z,1.87
2018-09-22T03:02:40.389Z,1.87
2018-09-22T03:05:08.402Z,1.53
2018-09-22T03:07:36.442Z,1.87
2018-09-22T03:10:04.500Z,1.87
2018-09-22T03:12:32.321Z,1.60
2018-09-22T03:15:00.146Z,1.93
2018-09-22T03:17:28.215Z,2.77
2018-09-22T03:19:56.292Z,1.70
2018-09-22T03:22:24.049Z,1.90
2018-09-22T03:24:51.841Z,1.73
2018-09-22T03:27:19.496Z,1.63
2018-09-22T03:29:47.192Z,1.93
2018-09-22T03:32:15.214Z,1.50
2018-09-22T03:34:43.010Z,1.80
2018-09-22T03:37:10.830Z,2.30
2018-09-22T03:39:38.609Z,1.80
2018-09-22T03:42:06.127Z,1.97
2018-09-22T03:44:33.966Z,1.80
2018-09-22T03:47:01.690Z,1.63
2018-09-22T03:49:29.769Z,1.37
2018-09-22T03:51:57.454Z,2.03
2018-09-22T03:54:25.299Z,1.97
2018-09-22T03:56:53.457Z,2.13
2018-09-22T03:59:21.475Z,1.80
2018-09-22T04:01:49.595Z,1.33
2018-09-22T04:04:17.245Z,2.13
2018-09-22T04:06:45.033Z,2.00
2018-09-22T04:09:13.608Z,1.70
2018-09-22T04:11:41.529Z,1.80
2018-09-22T04:14:09.538Z,1.80
2018-09-22T04:16:37.416Z,2.47
2018-09-22T04:19:05.477Z,1.87
2018-09-22T04:21:33.237Z,2.10
2018-09-22T04:24:05.711Z,1.90
2018-09-22T04:26:33.561Z,2.60
2018-09-22T04:29:01.544Z,1.87
2018-09-22T04:31:29.197Z,2.63
2018-09-22T04:33:56.934Z,2.17
2018-09-22T04:36:24.609Z,1.73
2018-09-22T04:38:52.301Z,2.40
2018-09-22T04:41:19.976Z,1.77
2018-09-22T04:43:47.921Z,2.20
2018-09-22T04:46:15.826Z,1.97
2018-09-22T04:48:43.651Z,1.97
2018-09-22T04:51:11.507Z,2.07
2018-09-22T04:53:39.451Z,1.90
2018-09-22T04:56:07.239Z,1.50
2018-09-22T04:58:35.077Z,1.40
2018-09-22T05:01:03.049Z,1.60
2018-09-22T05:03:30.931Z,2.37
2018-09-22T05:05:58.717Z,2.30
2018-09-22T05:08:26.683Z,2.30
2018-09-22T05:10:54.348Z,2.17
2018-09-22T05:13:22.073Z,2.20
2018-09-22T05:15:51.043Z,1.70
2018-09-22T05:18:18.825Z,2.20
2018-09-22T05:20:46.514Z,1.97
2018-09-22T05:23:14.234Z,1.93
2018-09-22T05:25:41.949Z,2.10
2018-09-22T05:28:09.668Z,2.23
2018-09-22T05:30:37.597Z,2.10
2018-09-22T05:33:05.393Z,2.23
2018-09-22T05:35:33.217Z,1.50
2018-09-22T05:38:00.853Z,1.90
2018-09-22T05:40:29.065Z,2.17
2018-09-22T05:42:56.969Z,1.43
2018-09-22T05:45:24.591Z,1.90
2018-09-22T05:47:52.315Z,2.23
2018-09-22T05:50:20.055Z,2.00
2018-09-22T05:52:47.714Z,2.43
2018-09-22T05:55:15.400Z,1.90
2018-09-22T05:57:43.061Z,2.80
2018-09-22T06:00:24.154Z,2.07
2018-09-22T06:02:52.105Z,2.10
2018-09-22T06:05:20.747Z,2.03
2018-09-22T06:07:48.504Z,1.80
2018-09-22T06:10:17.893Z,1.63
2018-09-22T06:12:46.240Z,1.60
2018-09-22T06:15:16.921Z,2.20
2018-09-22T06:17:46.466Z,1.73
2018-09-22T06:20:14.885Z,2.07
2018-09-22T06:22:43.431Z,2.30
2018-09-22T06:25:11.960Z,2.50
2018-09-22T06:27:39.772Z,2.50
2018-09-22T06:30:07.862Z,2.00
2018-09-22T06:32:36.084Z,2.50
2018-09-22T06:35:04.252Z,3.10
2018-09-22T06:37:32.618Z,1.30
2018-09-22T06:40:01.170Z,2.17
2018-09-22T06:42:29.057Z,1.70
2018-09-22T06:44:57.717Z,2.00
2018-09-22T06:47:25.769Z,2.37
2018-09-22T06:49:53.777Z,1.83
2018-09-22T06:52:21.769Z,2.27
2018-09-22T06:54:49.775Z,2.70
2018-09-22T06:57:17.672Z,2.10
2018-09-22T06:59:45.437Z,1.53
2018-09-22T07:02:13.270Z,1.80
2018-09-22T07:04:41.168Z,1.60
2018-09-22T07:07:09.376Z,2.70
2018-09-22T07:09:37.745Z,1.80
2018-09-22T07:12:06.090Z,2.03
2018-09-22T07:14:34.278Z,2.10
2018-09-22T07:17:03.116Z,1.63
2018-09-22T07:19:31.216Z,1.97
2018-09-22T07:22:04.846Z,1.83
2018-09-22T07:24:32.861Z,1.70
2018-09-22T07:27:00.806Z,1.97
2018-09-22T07:29:29.115Z,1.90
2018-09-22T07:31:58.863Z,1.40
2018-09-22T07:34:29.689Z,1.90
2018-09-22T07:36:59.134Z,1.83
2018-09-22T07:39:32.170Z,1.43
2018-09-22T07:42:06.878Z,2.07
2018-09-22T07:44:36.154Z,1.90
2018-09-22T07:47:06.851Z,1.73
2018-09-22T07:49:35.798Z,2.27
2018-09-22T07:52:06.558Z,1.93
2018-09-22T07:54:36.438Z,2.13
2018-09-22T07:57:04.973Z,2.13
2018-09-22T07:59:33.853Z,1.73
2018-09-22T08:02:03.856Z,1.50
2018-09-22T08:04:32.154Z,2.07
2018-09-22T08:07:00.913Z,1.90
2018-09-22T08:09:29.601Z,1.70
2018-09-22T08:11:59.304Z,1.50
2018-09-22T08:14:28.378Z,1.47
2018-09-22T08:16:58.387Z,1.70
2018-09-22T08:19:33.493Z,2.03
2018-09-22T08:22:02.060Z,1.97
2018-09-22T08:24:30.875Z,2.40
2018-09-22T08:27:00.231Z,1.47
2018-09-22T08:29:33.018Z,2.10
2018-09-22T08:32:01.843Z,1.93
2018-09-22T08:34:32.215Z,1.50
2018-09-22T08:37:02.362Z,1.90
2018-09-22T08:39:30.392Z,1.60
2018-09-22T08:41:58.630Z,1.93
2018-09-22T08:44:27.042Z,1.30
2018-09-22T08:46:55.615Z,1.53
2018-09-22T08:49:26.803Z,1.10
2018-09-22T08:51:56.698Z,1.60
2018-09-22T08:54:27.302Z,1.53
2018-09-22T08:56:58.181Z,1.30
2018-09-22T08:59:27.498Z,1.30
2018-09-22T09:02:00.297Z,1.47
2018-09-22T09:04:30.660Z,1.37
2018-09-22T09:07:00.530Z,1.47
2018-09-22T09:09:29.017Z,1.23
2018-09-22T09:11:57.676Z,2.00
2018-09-22T09:14:32.391Z,1.40
2018-09-22T09:17:02.937Z,1.60
2018-09-22T09:19:31.386Z,1.13
2018-09-22T09:21:59.486Z,5.43
2018-09-22T09:24:27.935Z,1.40
2018-09-22T09:26:56.329Z,1.40
2018-09-22T09:29:26.293Z,1.77
2018-09-22T09:31:55.855Z,0.93
2018-09-22T09:34:23.933Z,1.90
2018-09-22T09:36:52.337Z,1.40
2018-09-22T09:39:20.517Z,1.80
2018-09-22T09:41:49.372Z,2.33
2018-09-22T09:44:17.412Z,1.40
2018-09-22T09:46:46.796Z,1.33
2018-09-22T09:49:14.774Z,1.97
2018-09-22T09:51:42.481Z,1.17
2018-09-22T09:54:10.153Z,1.70
2018-09-22T09:56:37.845Z,1.43
2018-09-22T09:59:07.077Z,1.90
2018-09-22T10:04:17.513Z,1.80
2018-09-22T10:07:15.319Z,1.33
2018-09-22T10:09:44.483Z,1.43
2018-09-22T10:12:16.295Z,1.50
2018-09-22T10:14:45.756Z,1.40
2018-09-22T10:17:24.272Z,1.57
2018-09-22T10:19:55.856Z,1.70
2018-09-22T10:22:31.243Z,2.20
2018-09-22T10:25:15.128Z,1.30
2018-09-22T10:30:32.591Z,1.40
2018-09-22T10:38:36.721Z,2.00
2018-09-22T10:44:13.147Z,1.40
2018-09-22T10:49:32.105Z,1.60
2018-09-22T10:57:49.233Z,1.10
2018-09-22T11:00:37.061Z,1.17
2018-09-22T11:06:00.458Z,1.83
2018-09-22T11:08:39.484Z,1.10
2018-09-22T11:31:16.177Z,1.60
2018-09-22T11:36:56.734Z,1.50
2018-09-22T11:53:46.445Z,1.50
2018-09-22T11:56:15.799Z,1.97
2018-09-22T11:58:46.343Z,1.00
2018-09-22T12:01:14.785Z,1.30
2018-09-22T12:03:44.101Z,1.30
2018-09-22T12:06:15.305Z,1.93
2018-09-22T12:08:44.847Z,1.20
2018-09-22T12:11:15.071Z,0.93
2018-09-22T12:13:43.665Z,1.10
2018-09-22T12:16:15.450Z,1.40
2018-09-22T12:18:46.598Z,0.80
2018-09-22T12:21:16.005Z,1.50
2018-09-22T12:23:45.055Z,1.70
2018-09-22T12:26:12.989Z,1.10
2018-09-22T12:28:41.307Z,1.10
2018-09-22T12:31:09.671Z,1.50
2018-09-22T12:33:38.129Z,0.97
2018-09-22T12:36:06.406Z,1.17
2018-09-22T12:38:35.468Z,1.40
2018-09-22T12:41:04.425Z,1.40
2018-09-22T12:43:34.550Z,0.93
2018-09-22T12:46:03.172Z,1.30
2018-09-22T12:48:32.235Z,1.50
2018-09-22T12:51:02.701Z,1.10
2018-09-22T12:53:32.260Z,1.27
2018-09-22T12:56:01.226Z,1.60
2018-09-22T12:58:30.802Z,1.20
2018-09-22T13:00:59.748Z,1.37
2018-09-22T13:03:28.060Z,1.00
2018-09-22T13:05:56.580Z,2.10
2018-09-22T13:08:29.294Z,1.13
2018-09-22T13:13:43.199Z,1.27
2018-09-22T13:16:11.326Z,1.67
2018-09-22T13:18:39.176Z,1.63
2018-09-22T13:21:06.832Z,1.20
2018-09-22T13:23:34.590Z,1.50
2018-09-22T13:26:02.633Z,1.03
2018-09-22T13:28:30.337Z,1.10
2018-09-22T13:30:58.124Z,1.27
2018-09-22T13:33:25.925Z,0.93
2018-09-22T13:35:53.873Z,1.33
2018-09-22T13:38:21.697Z,1.40
2018-09-22T13:40:49.424Z,1.00
2018-09-22T13:43:17.085Z,1.87
2018-09-22T13:45:45.123Z,1.00
2018-09-22T13:48:13.014Z,1.13
2018-09-22T13:50:40.731Z,0.80
2018-09-22T13:53:08.561Z,0.93
2018-09-22T13:55:36.346Z,1.60
2018-09-22T13:58:06.489Z,0.80
2018-09-22T14:00:34.360Z,1.50
2018-09-22T14:03:02.125Z,0.97
2018-09-22T14:05:31.212Z,1.20
2018-09-22T14:07:59.029Z,1.00
2018-09-22T14:10:27.680Z,1.10
2018-09-22T14:12:55.625Z,0.87
2018-09-22T14:15:23.658Z,1.43
2018-09-22T14:17:51.483Z,1.03
2018-09-22T14:20:20.525Z,1.30
2018-09-22T14:22:49.585Z,0.93
2018-09-22T14:25:26.598Z,1.07
2018-09-22T14:27:54.749Z,1.00
2018-09-22T14:30:24.104Z,0.80
2018-09-22T14:32:53.481Z,1.00
2018-09-22T14:35:21.798Z,0.90
2018-09-22T14:37:49.847Z,0.93
2018-09-22T14:40:17.540Z,1.00
2018-09-22T14:42:45.231Z,0.83
2018-09-22T14:45:19.689Z,0.93
2018-09-22T14:47:48.653Z,0.80
2018-09-22T14:50:18.209Z,1.20
2018-09-22T14:52:47.789Z,1.23
2018-09-22T14:55:15.788Z,1.10
2018-09-22T14:57:43.794Z,1.20
2018-09-22T15:00:14.641Z,1.20
2018-09-22T15:02:42.332Z,1.50
2018-09-22T15:05:10.080Z,0.97
2018-09-22T15:07:38.363Z,1.10
2018-09-22T15:10:06.295Z,1.27
2018-09-22T15:12:34.068Z,1.10
2018-09-22T15:15:01.828Z,0.90
2018-09-22T15:17:30.830Z,1.27
2018-09-22T15:20:00.817Z,1.00
2018-09-22T15:22:28.429Z,2.40
2018-09-22T15:25:04.284Z,1.13
2018-09-22T15:27:35.924Z,1.10
2018-09-22T15:30:04.209Z,1.07
2018-09-22T15:32:32.552Z,1.03
2018-09-22T15:35:00.330Z,1.10
2018-09-22T15:37:29.973Z,1.30
2018-09-22T15:40:00.336Z,1.37
2018-09-22T15:42:28.275Z,1.10
2018-09-22T15:44:56.092Z,1.80
2018-09-22T15:47:23.881Z,1.23
2018-09-22T15:49:55.645Z,1.00
2018-09-22T15:52:24.225Z,1.03
2018-09-22T15:54:52.753Z,1.30
2018-09-22T15:57:20.413Z,1.03
2018-09-22T15:59:48.781Z,1.40
2018-09-22T16:02:16.502Z,2.10
2018-09-22T16:04:45.009Z,1.30
2018-09-22T16:07:13.965Z,1.13
2018-09-22T16:09:41.950Z,1.20
2018-09-22T16:12:09.877Z,1.10
2018-09-22T16:14:37.733Z,1.77
2018-09-22T16:17:05.423Z,1.27
2018-09-22T16:19:35.097Z,1.13
2018-09-22T16:22:04.718Z,1.10
2018-09-22T16:24:32.407Z,1.37
2018-09-22T16:27:00.449Z,1.07
2018-09-22T16:29:28.245Z,1.20
2018-09-22T16:31:56.026Z,1.27
2018-09-22T16:34:23.910Z,1.57
2018-09-22T16:36:51.646Z,2.00
2018-09-22T16:39:19.520Z,1.20
2018-09-22T16:41:47.217Z,1.50
2018-09-22T16:44:14.864Z,1.30
2018-09-22T16:46:42.715Z,1.17
2018-09-22T16:49:10.655Z,1.17
2018-09-22T16:51:38.405Z,1.80
2018-09-22T16:54:06.535Z,1.50
2018-09-22T16:56:34.281Z,1.63
2018-09-22T16:59:02.461Z,1.50
2018-09-22T17:01:31.595Z,1.67
2018-09-22T17:03:59.502Z,1.10
2018-09-22T17:06:27.211Z,1.70
2018-09-22T17:08:55.532Z,1.37
2018-09-22T17:11:24.453Z,1.07
2018-09-22T17:13:52.202Z,1.10
2018-09-22T17:16:20.377Z,1.43
2018-09-22T17:18:48.691Z,1.17
2018-09-22T17:21:24.033Z,1.33
2018-09-22T17:24:09.917Z,1.57
2018-09-22T17:32:22.637Z,2.70
2018-09-22T17:40:24.953Z,2.13
2018-09-22T17:43:05.403Z,2.47
2018-09-22T17:54:27.432Z,1.53
2018-09-22T17:56:57.372Z,1.90
2018-09-22T18:02:24.487Z,1.93
2018-09-22T18:04:55.709Z,1.80
2018-09-22T18:10:14.474Z,1.97
2018-09-22T18:18:30.355Z,1.40
2018-09-22T18:21:13.351Z,1.53
2018-09-22T18:46:58.217Z,2.47
2018-09-22T18:52:13.027Z,2.67
2018-09-22T18:54:47.144Z,3.67
2018-09-22T18:57:18.644Z,3.00
2018-09-22T18:59:53.371Z,2.60
2018-09-22T19:02:23.781Z,2.43
2018-09-22T19:04:54.625Z,2.23
2018-09-22T19:07:29.364Z,2.30
2018-09-22T19:09:59.986Z,2.10
2018-09-22T19:12:33.843Z,2.40
2018-09-22T19:15:14.773Z,2.27
2018-09-22T19:17:55.780Z,2.10
2018-09-22T19:20:44.188Z,2.13
2018-09-22T19:23:26.528Z,2.30
2018-09-22T19:26:02.523Z,5.50
2018-09-22T19:28:46.219Z,3.77
2018-09-22T19:31:22.488Z,4.33
2018-09-22T19:33:56.382Z,3.90
2018-09-22T19:36:30.683Z,4.43
2018-09-22T19:39:06.028Z,4.70
2018-09-22T19:41:49.064Z,4.20
2018-09-22T19:45:31.813Z,3.90
2018-09-22T19:50:11.888Z,4.27
2018-09-22T19:52:49.629Z,3.37
2018-09-22T19:58:02.182Z,2.93
2018-09-22T20:00:30.990Z,2.37
2018-09-22T20:03:07.266Z,2.60
2018-09-22T20:05:37.183Z,2.30
2018-09-22T20:08:08.637Z,2.40
2018-09-22T20:13:26.922Z,2.20
2018-09-22T21:36:10.450Z,3.77
2018-09-22T21:56:24.348Z,3.73
2018-09-22T22:00:13.900Z,3.50
2018-09-22T22:05:44.765Z,2.70
2018-09-22T22:08:53.947Z,3.03
2018-09-22T22:14:28.422Z,3.27
2018-09-22T22:16:59.514Z,2.27
2018-09-22T22:19:27.957Z,2.90
2018-09-22T22:22:04.712Z,3.10
2018-09-22T22:24:34.905Z,3.90
2018-09-22T22:27:04.766Z,4.10
2018-09-22T22:29:42.091Z,3.50
2018-09-22T22:32:12.237Z,4.03
2018-09-22T22:34:44.687Z,3.60
2018-09-22T22:37:25.528Z,4.00
2018-09-22T22:39:58.231Z,3.63
2018-09-22T22:45:21.762Z,4.47
2018-09-22T22:48:09.458Z,4.90
2018-09-22T22:50:41.631Z,3.57
2018-09-22T22:53:10.591Z,4.03
2018-09-22T22:55:42.187Z,3.87
2018-09-22T22:58:14.853Z,3.73
2018-09-22T23:00:49.042Z,3.47
2018-09-22T23:03:20.147Z,4.13
2018-09-22T23:05:54.668Z,4.30
2018-09-22T23:08:27.405Z,4.33
2018-09-22T23:10:57.871Z,3.33
2018-09-22T23:13:33.286Z,3.67
2018-09-22T23:16:06.776Z,4.40
2018-09-22T23:22:05.278Z,2.33
2018-09-22T23:27:17.333Z,2.90
2018-09-22T23:29:53.422Z,2.50
2018-09-22T23:32:27.549Z,2.97
2018-09-22T23:35:05.625Z,3.50
2018-09-22T23:37:51.856Z,2.10
2018-09-22T23:40:34.384Z,2.00
2018-09-22T23:46:06.116Z,2.17
2018-09-22T23:53:47.198Z,2.10
2018-09-22T23:59:26.478Z,1.87
